sensor_id;sensor_type;location;lat;lon;timestamp;temperature;humidity
20487;DHT22;10402;49.012;8.370;2023-07-02T00:02:23;19.30;92.60
20487;DHT22;10402;49.012;8.370;2023-07-02T00:04:49;19.30;92.60
20487;DHT22;10402;49.012;8.370;2023-07-02T00:07:14;19.30;92.70
20487;DHT22;10402;49.012;8.370;2023-07-02T00:09:40;19.40;92.70
20487;DHT22;10402;49.012;8.370;2023-07-02T00:12:06;19.30;92.60
20487;DHT22;10402;49.012;8.370;2023-07-02T00:14:32;19.30;92.70
20487;DHT22;10402;49.012;8.370;2023-07-02T00:16:58;19.40;92.80
20487;DHT22;10402;49.012;8.370;2023-07-02T00:19:24;19.30;92.80
20487;DHT22;10402;49.012;8.370;2023-07-02T00:21:49;19.30;92.90
20487;DHT22;10402;49.012;8.370;2023-07-02T00:24:15;19.30;92.90
20487;DHT22;10402;49.012;8.370;2023-07-02T00:26:41;19.30;93.00
20487;DHT22;10402;49.012;8.370;2023-07-02T00:29:08;19.30;93.00
20487;DHT22;10402;49.012;8.370;2023-07-02T00:31:34;19.30;93.00
20487;DHT22;10402;49.012;8.370;2023-07-02T00:34:01;19.30;93.00
20487;DHT22;10402;49.012;8.370;2023-07-02T00:36:27;19.20;93.10
20487;DHT22;10402;49.012;8.370;2023-07-02T00:38:53;19.30;93.20
20487;DHT22;10402;49.012;8.370;2023-07-02T00:41:19;19.30;93.20
20487;DHT22;10402;49.012;8.370;2023-07-02T00:43:44;19.30;93.20
20487;DHT22;10402;49.012;8.370;2023-07-02T00:46:14;19.30;93.10
20487;DHT22;10402;49.012;8.370;2023-07-02T00:48:49;19.30;93.10
20487;DHT22;10402;49.012;8.370;2023-07-02T00:51:17;19.30;93.20
20487;DHT22;10402;49.012;8.370;2023-07-02T00:53:47;19.30;93.30
20487;DHT22;10402;49.012;8.370;2023-07-02T00:56:13;19.30;93.30
20487;DHT22;10402;49.012;8.370;2023-07-02T00:58:41;19.30;93.40
20487;DHT22;10402;49.012;8.370;2023-07-02T01:01:15;19.40;93.50
20487;DHT22;10402;49.012;8.370;2023-07-02T01:03:53;19.40;93.30
20487;DHT22;10402;49.012;8.370;2023-07-02T01:06:31;19.50;93.30
20487;DHT22;10402;49.012;8.370;2023-07-02T01:08:59;19.50;93.20
20487;DHT22;10402;49.012;8.370;2023-07-02T01:11:40;19.50;93.10
20487;DHT22;10402;49.012;8.370;2023-07-02T01:14:08;19.50;93.20
20487;DHT22;10402;49.012;8.370;2023-07-02T01:16:35;19.50;93.10
20487;DHT22;10402;49.012;8.370;2023-07-02T01:19:04;19.50;93.10
20487;DHT22;10402;49.012;8.370;2023-07-02T01:21:31;19.50;93.20
20487;DHT22;10402;49.012;8.370;2023-07-02T01:23:58;19.50;93.20
20487;DHT22;10402;49.012;8.370;2023-07-02T01:26:29;19.40;93.10
20487;DHT22;10402;49.012;8.370;2023-07-02T01:28:54;19.50;93.30
20487;DHT22;10402;49.012;8.370;2023-07-02T01:31:20;19.40;93.20
20487;DHT22;10402;49.012;8.370;2023-07-02T01:33:51;19.40;93.30
20487;DHT22;10402;49.012;8.370;2023-07-02T01:36:17;19.50;93.40
20487;DHT22;10402;49.012;8.370;2023-07-02T01:38:43;19.50;93.40
20487;DHT22;10402;49.012;8.370;2023-07-02T01:41:08;19.40;93.30
20487;DHT22;10402;49.012;8.370;2023-07-02T01:43:34;19.40;93.20
20487;DHT22;10402;49.012;8.370;2023-07-02T01:46:00;19.40;93.20
20487;DHT22;10402;49.012;8.370;2023-07-02T01:48:27;19.40;93.30
20487;DHT22;10402;49.012;8.370;2023-07-02T01:50:52;19.40;93.30
20487;DHT22;10402;49.012;8.370;2023-07-02T01:53:18;19.40;93.10
20487;DHT22;10402;49.012;8.370;2023-07-02T01:55:43;19.30;93.10
20487;DHT22;10402;49.012;8.370;2023-07-02T01:58:09;19.20;92.40
20487;DHT22;10402;49.012;8.370;2023-07-02T02:00:34;19.30;92.20
20487;DHT22;10402;49.012;8.370;2023-07-02T02:03:00;19.20;91.90
20487;DHT22;10402;49.012;8.370;2023-07-02T02:05:25;19.20;91.80
20487;DHT22;10402;49.012;8.370;2023-07-02T02:07:51;19.20;91.60
20487;DHT22;10402;49.012;8.370;2023-07-02T02:10:17;19.20;91.40
20487;DHT22;10402;49.012;8.370;2023-07-02T02:12:42;19.20;90.90
20487;DHT22;10402;49.012;8.370;2023-07-02T02:15:08;19.10;90.80
20487;DHT22;10402;49.012;8.370;2023-07-02T02:17:33;19.10;90.80
20487;DHT22;10402;49.012;8.370;2023-07-02T02:20:00;19.10;90.80
20487;DHT22;10402;49.012;8.370;2023-07-02T02:22:26;19.10;90.70
20487;DHT22;10402;49.012;8.370;2023-07-02T02:24:51;19.10;90.50
20487;DHT22;10402;49.012;8.370;2023-07-02T02:27:17;19.10;90.40
20487;DHT22;10402;49.012;8.370;2023-07-02T02:29:42;19.10;90.40
20487;DHT22;10402;49.012;8.370;2023-07-02T02:32:08;19.20;90.40
20487;DHT22;10402;49.012;8.370;2023-07-02T02:34:33;19.10;90.30
20487;DHT22;10402;49.012;8.370;2023-07-02T02:36:59;19.10;90.30
20487;DHT22;10402;49.012;8.370;2023-07-02T02:39:24;19.10;90.30
20487;DHT22;10402;49.012;8.370;2023-07-02T02:41:50;19.10;90.20
20487;DHT22;10402;49.012;8.370;2023-07-02T02:44:16;19.10;90.40
20487;DHT22;10402;49.012;8.370;2023-07-02T02:46:41;19.10;90.30
20487;DHT22;10402;49.012;8.370;2023-07-02T02:49:07;19.10;90.20
20487;DHT22;10402;49.012;8.370;2023-07-02T02:51:32;19.00;90.10
20487;DHT22;10402;49.012;8.370;2023-07-02T02:53:58;19.00;90.10
20487;DHT22;10402;49.012;8.370;2023-07-02T02:56:23;19.00;90.00
20487;DHT22;10402;49.012;8.370;2023-07-02T02:58:49;19.00;90.00
20487;DHT22;10402;49.012;8.370;2023-07-02T03:01:15;19.00;90.00
20487;DHT22;10402;49.012;8.370;2023-07-02T03:03:41;18.90;89.60
20487;DHT22;10402;49.012;8.370;2023-07-02T03:06:11;18.90;89.60
20487;DHT22;10402;49.012;8.370;2023-07-02T03:08:36;18.80;89.60
20487;DHT22;10402;49.012;8.370;2023-07-02T03:11:02;18.80;89.60
20487;DHT22;10402;49.012;8.370;2023-07-02T03:13:27;18.80;89.60
20487;DHT22;10402;49.012;8.370;2023-07-02T03:15:53;18.80;89.70
20487;DHT22;10402;49.012;8.370;2023-07-02T03:18:18;18.80;90.00
20487;DHT22;10402;49.012;8.370;2023-07-02T03:20:44;18.80;90.00
20487;DHT22;10402;49.012;8.370;2023-07-02T03:23:10;18.70;90.10
20487;DHT22;10402;49.012;8.370;2023-07-02T03:25:35;18.70;90.10
20487;DHT22;10402;49.012;8.370;2023-07-02T03:28:01;18.70;90.20
20487;DHT22;10402;49.012;8.370;2023-07-02T03:30:26;18.60;90.20
20487;DHT22;10402;49.012;8.370;2023-07-02T03:32:52;18.60;90.10
20487;DHT22;10402;49.012;8.370;2023-07-02T03:35:17;18.60;90.20
20487;DHT22;10402;49.012;8.370;2023-07-02T03:37:43;18.60;90.20
20487;DHT22;10402;49.012;8.370;2023-07-02T03:40:09;18.60;90.30
20487;DHT22;10402;49.012;8.370;2023-07-02T03:42:35;18.60;90.30
20487;DHT22;10402;49.012;8.370;2023-07-02T03:45:00;18.60;90.30
20487;DHT22;10402;49.012;8.370;2023-07-02T03:47:26;18.60;90.30
20487;DHT22;10402;49.012;8.370;2023-07-02T03:49:51;18.60;90.20
20487;DHT22;10402;49.012;8.370;2023-07-02T03:52:17;18.60;90.20
20487;DHT22;10402;49.012;8.370;2023-07-02T03:54:42;18.60;90.20
20487;DHT22;10402;49.012;8.370;2023-07-02T03:57:08;18.50;90.20
20487;DHT22;10402;49.012;8.370;2023-07-02T03:59:34;18.60;90.20
20487;DHT22;10402;49.012;8.370;2023-07-02T04:02:00;18.60;90.30
20487;DHT22;10402;49.012;8.370;2023-07-02T04:04:25;18.50;90.30
20487;DHT22;10402;49.012;8.370;2023-07-02T04:06:51;18.50;90.40
20487;DHT22;10402;49.012;8.370;2023-07-02T04:09:16;18.50;90.50
20487;DHT22;10402;49.012;8.370;2023-07-02T04:11:43;18.50;90.50
20487;DHT22;10402;49.012;8.370;2023-07-02T04:14:09;18.50;90.50
20487;DHT22;10402;49.012;8.370;2023-07-02T04:16:34;18.50;90.50
20487;DHT22;10402;49.012;8.370;2023-07-02T04:19:00;18.50;90.50
20487;DHT22;10402;49.012;8.370;2023-07-02T04:21:26;18.60;90.50
20487;DHT22;10402;49.012;8.370;2023-07-02T04:23:51;18.50;90.40
20487;DHT22;10402;49.012;8.370;2023-07-02T04:26:17;18.60;90.30
20487;DHT22;10402;49.012;8.370;2023-07-02T04:28:43;18.60;90.20
20487;DHT22;10402;49.012;8.370;2023-07-02T04:31:09;18.60;90.20
20487;DHT22;10402;49.012;8.370;2023-07-02T04:33:34;18.70;90.10
20487;DHT22;10402;49.012;8.370;2023-07-02T04:36:02;18.70;90.00
20487;DHT22;10402;49.012;8.370;2023-07-02T04:38:28;18.70;89.90
20487;DHT22;10402;49.012;8.370;2023-07-02T04:40:54;18.70;89.40
20487;DHT22;10402;49.012;8.370;2023-07-02T04:43:22;18.70;89.10
20487;DHT22;10402;49.012;8.370;2023-07-02T04:45:49;18.70;89.00
20487;DHT22;10402;49.012;8.370;2023-07-02T04:48:14;18.70;88.90
20487;DHT22;10402;49.012;8.370;2023-07-02T04:50:41;18.70;88.60
20487;DHT22;10402;49.012;8.370;2023-07-02T04:53:06;18.60;88.50
20487;DHT22;10402;49.012;8.370;2023-07-02T04:55:32;18.60;88.50
20487;DHT22;10402;49.012;8.370;2023-07-02T04:57:57;18.60;88.70
20487;DHT22;10402;49.012;8.370;2023-07-02T05:00:23;18.60;88.70
20487;DHT22;10402;49.012;8.370;2023-07-02T05:02:49;18.60;88.50
20487;DHT22;10402;49.012;8.370;2023-07-02T05:05:14;18.60;88.70
20487;DHT22;10402;49.012;8.370;2023-07-02T05:07:40;18.60;88.90
20487;DHT22;10402;49.012;8.370;2023-07-02T05:10:06;18.60;89.00
20487;DHT22;10402;49.012;8.370;2023-07-02T05:12:32;18.60;88.80
20487;DHT22;10402;49.012;8.370;2023-07-02T05:14:57;18.60;88.60
20487;DHT22;10402;49.012;8.370;2023-07-02T05:17:23;18.60;88.50
20487;DHT22;10402;49.012;8.370;2023-07-02T05:19:48;18.60;89.10
20487;DHT22;10402;49.012;8.370;2023-07-02T05:22:14;18.60;88.50
20487;DHT22;10402;49.012;8.370;2023-07-02T05:24:39;18.60;88.50
20487;DHT22;10402;49.012;8.370;2023-07-02T05:27:06;18.70;88.30
20487;DHT22;10402;49.012;8.370;2023-07-02T05:29:31;18.80;88.20
20487;DHT22;10402;49.012;8.370;2023-07-02T05:31:57;18.80;88.20
20487;DHT22;10402;49.012;8.370;2023-07-02T05:34:22;18.80;88.00
20487;DHT22;10402;49.012;8.370;2023-07-02T05:36:48;18.80;88.10
20487;DHT22;10402;49.012;8.370;2023-07-02T05:39:14;18.80;88.10
20487;DHT22;10402;49.012;8.370;2023-07-02T05:41:39;18.70;88.30
20487;DHT22;10402;49.012;8.370;2023-07-02T05:44:05;18.80;88.40
20487;DHT22;10402;49.012;8.370;2023-07-02T05:46:30;18.80;88.10
20487;DHT22;10402;49.012;8.370;2023-07-02T05:48:56;18.80;88.00
20487;DHT22;10402;49.012;8.370;2023-07-02T05:51:23;18.80;88.10
20487;DHT22;10402;49.012;8.370;2023-07-02T05:53:49;18.80;88.10
20487;DHT22;10402;49.012;8.370;2023-07-02T05:56:15;18.80;87.90
20487;DHT22;10402;49.012;8.370;2023-07-02T05:58:41;18.80;87.60
20487;DHT22;10402;49.012;8.370;2023-07-02T06:01:06;18.80;87.60
20487;DHT22;10402;49.012;8.370;2023-07-02T06:03:32;18.80;87.50
20487;DHT22;10402;49.012;8.370;2023-07-02T06:05:58;18.80;87.50
20487;DHT22;10402;49.012;8.370;2023-07-02T06:08:23;18.80;87.60
20487;DHT22;10402;49.012;8.370;2023-07-02T06:10:49;18.90;87.40
20487;DHT22;10402;49.012;8.370;2023-07-02T06:13:15;18.90;87.20
20487;DHT22;10402;49.012;8.370;2023-07-02T06:15:41;19.00;87.10
20487;DHT22;10402;49.012;8.370;2023-07-02T06:18:06;19.00;87.10
20487;DHT22;10402;49.012;8.370;2023-07-02T06:20:32;19.00;87.00
20487;DHT22;10402;49.012;8.370;2023-07-02T06:22:57;19.10;87.10
20487;DHT22;10402;49.012;8.370;2023-07-02T06:25:23;19.10;86.80
20487;DHT22;10402;49.012;8.370;2023-07-02T06:27:49;19.10;86.60
20487;DHT22;10402;49.012;8.370;2023-07-02T06:30:14;19.10;86.40
20487;DHT22;10402;49.012;8.370;2023-07-02T06:32:40;19.10;86.20
20487;DHT22;10402;49.012;8.370;2023-07-02T06:35:06;19.10;86.10
20487;DHT22;10402;49.012;8.370;2023-07-02T06:37:32;19.10;85.90
20487;DHT22;10402;49.012;8.370;2023-07-02T06:39:58;19.10;85.80
20487;DHT22;10402;49.012;8.370;2023-07-02T06:42:24;19.10;85.80
20487;DHT22;10402;49.012;8.370;2023-07-02T06:44:50;19.20;85.60
20487;DHT22;10402;49.012;8.370;2023-07-02T06:47:16;19.20;85.20
20487;DHT22;10402;49.012;8.370;2023-07-02T06:49:41;19.30;85.00
20487;DHT22;10402;49.012;8.370;2023-07-02T06:52:07;19.30;84.40
20487;DHT22;10402;49.012;8.370;2023-07-02T06:54:33;19.40;83.90
20487;DHT22;10402;49.012;8.370;2023-07-02T06:56:58;19.40;83.60
20487;DHT22;10402;49.012;8.370;2023-07-02T06:59:24;19.40;83.10
20487;DHT22;10402;49.012;8.370;2023-07-02T07:01:50;19.50;82.70
20487;DHT22;10402;49.012;8.370;2023-07-02T07:04:16;19.50;82.10
20487;DHT22;10402;49.012;8.370;2023-07-02T07:06:42;19.60;82.00
20487;DHT22;10402;49.012;8.370;2023-07-02T07:09:08;19.60;81.50
20487;DHT22;10402;49.012;8.370;2023-07-02T07:11:34;19.70;81.40
20487;DHT22;10402;49.012;8.370;2023-07-02T07:13:59;19.70;81.00
20487;DHT22;10402;49.012;8.370;2023-07-02T07:16:25;19.80;80.70
20487;DHT22;10402;49.012;8.370;2023-07-02T07:18:50;19.80;80.10
20487;DHT22;10402;49.012;8.370;2023-07-02T07:21:16;19.80;79.40
20487;DHT22;10402;49.012;8.370;2023-07-02T07:23:41;19.90;78.60
20487;DHT22;10402;49.012;8.370;2023-07-02T07:26:07;19.90;78.00
20487;DHT22;10402;49.012;8.370;2023-07-02T07:28:32;19.90;77.80
20487;DHT22;10402;49.012;8.370;2023-07-02T07:30:58;19.90;77.20
20487;DHT22;10402;49.012;8.370;2023-07-02T07:33:23;19.90;76.70
20487;DHT22;10402;49.012;8.370;2023-07-02T07:35:49;19.90;76.00
20487;DHT22;10402;49.012;8.370;2023-07-02T07:38:15;19.90;76.00
20487;DHT22;10402;49.012;8.370;2023-07-02T07:40:40;19.90;75.70
20487;DHT22;10402;49.012;8.370;2023-07-02T07:43:06;19.90;75.30
20487;DHT22;10402;49.012;8.370;2023-07-02T07:45:32;20.00;75.20
20487;DHT22;10402;49.012;8.370;2023-07-02T07:47:58;20.00;74.50
20487;DHT22;10402;49.012;8.370;2023-07-02T07:50:24;20.00;74.10
20487;DHT22;10402;49.012;8.370;2023-07-02T07:52:49;20.00;74.00
20487;DHT22;10402;49.012;8.370;2023-07-02T07:55:15;20.10;73.70
20487;DHT22;10402;49.012;8.370;2023-07-02T07:57:41;20.10;73.30
20487;DHT22;10402;49.012;8.370;2023-07-02T08:00:07;20.10;73.20
20487;DHT22;10402;49.012;8.370;2023-07-02T08:02:35;20.20;72.80
20487;DHT22;10402;49.012;8.370;2023-07-02T08:05:01;20.10;72.20
20487;DHT22;10402;49.012;8.370;2023-07-02T08:07:26;20.20;72.40
20487;DHT22;10402;49.012;8.370;2023-07-02T08:09:52;20.20;72.00
20487;DHT22;10402;49.012;8.370;2023-07-02T08:12:17;20.30;72.00
20487;DHT22;10402;49.012;8.370;2023-07-02T08:14:43;20.30;71.90
20487;DHT22;10402;49.012;8.370;2023-07-02T08:17:08;20.40;72.40
20487;DHT22;10402;49.012;8.370;2023-07-02T08:19:34;20.50;71.40
20487;DHT22;10402;49.012;8.370;2023-07-02T08:21:59;20.50;71.20
20487;DHT22;10402;49.012;8.370;2023-07-02T08:24:25;20.60;71.30
20487;DHT22;10402;49.012;8.370;2023-07-02T08:26:51;20.60;71.00
20487;DHT22;10402;49.012;8.370;2023-07-02T08:29:16;20.60;70.50
20487;DHT22;10402;49.012;8.370;2023-07-02T08:31:42;20.60;70.30
20487;DHT22;10402;49.012;8.370;2023-07-02T08:34:08;20.70;70.40
20487;DHT22;10402;49.012;8.370;2023-07-02T08:36:34;20.70;70.10
20487;DHT22;10402;49.012;8.370;2023-07-02T08:38:59;20.70;69.90
20487;DHT22;10402;49.012;8.370;2023-07-02T08:41:25;20.80;70.00
20487;DHT22;10402;49.012;8.370;2023-07-02T08:43:55;20.80;69.90
20487;DHT22;10402;49.012;8.370;2023-07-02T08:46:21;20.90;69.50
20487;DHT22;10402;49.012;8.370;2023-07-02T08:48:47;20.90;69.40
20487;DHT22;10402;49.012;8.370;2023-07-02T08:51:13;21.00;69.30
20487;DHT22;10402;49.012;8.370;2023-07-02T08:53:38;21.00;68.70
20487;DHT22;10402;49.012;8.370;2023-07-02T08:56:04;21.10;68.80
20487;DHT22;10402;49.012;8.370;2023-07-02T08:58:30;21.10;68.40
20487;DHT22;10402;49.012;8.370;2023-07-02T09:01:13;21.10;67.90
20487;DHT22;10402;49.012;8.370;2023-07-02T09:03:39;21.10;67.80
20487;DHT22;10402;49.012;8.370;2023-07-02T09:06:07;21.20;67.90
20487;DHT22;10402;49.012;8.370;2023-07-02T09:08:33;21.20;67.70
20487;DHT22;10402;49.012;8.370;2023-07-02T09:14:02;21.30;67.30
20487;DHT22;10402;49.012;8.370;2023-07-02T09:16:32;21.30;67.50
20487;DHT22;10402;49.012;8.370;2023-07-02T09:19:00;21.40;67.30
20487;DHT22;10402;49.012;8.370;2023-07-02T09:21:39;21.40;66.90
20487;DHT22;10402;49.012;8.370;2023-07-02T09:24:23;21.30;66.70
20487;DHT22;10402;49.012;8.370;2023-07-02T09:26:53;21.30;66.30
20487;DHT22;10402;49.012;8.370;2023-07-02T09:29:32;21.20;66.50
20487;DHT22;10402;49.012;8.370;2023-07-02T09:32:00;21.30;66.30
20487;DHT22;10402;49.012;8.370;2023-07-02T09:34:30;21.20;66.00
20487;DHT22;10402;49.012;8.370;2023-07-02T09:37:01;21.30;66.10
20487;DHT22;10402;49.012;8.370;2023-07-02T09:39:28;21.40;66.30
20487;DHT22;10402;49.012;8.370;2023-07-02T09:41:56;21.40;65.10
20487;DHT22;10402;49.012;8.370;2023-07-02T09:44:25;21.40;64.90
20487;DHT22;10402;49.012;8.370;2023-07-02T09:46:58;21.50;65.00
20487;DHT22;10402;49.012;8.370;2023-07-02T09:49:26;21.60;64.70
20487;DHT22;10402;49.012;8.370;2023-07-02T09:51:52;21.70;64.70
20487;DHT22;10402;49.012;8.370;2023-07-02T09:54:18;21.80;64.30
20487;DHT22;10402;49.012;8.370;2023-07-02T09:56:46;21.90;63.80
20487;DHT22;10402;49.012;8.370;2023-07-02T09:59:13;22.00;63.40
20487;DHT22;10402;49.012;8.370;2023-07-02T10:01:39;22.00;63.90
20487;DHT22;10402;49.012;8.370;2023-07-02T10:04:15;22.10;62.80
20487;DHT22;10402;49.012;8.370;2023-07-02T10:06:51;22.20;62.60
20487;DHT22;10402;49.012;8.370;2023-07-02T10:09:20;22.20;62.20
20487;DHT22;10402;49.012;8.370;2023-07-02T10:11:46;22.20;62.00
20487;DHT22;10402;49.012;8.370;2023-07-02T10:14:11;22.20;60.90
20487;DHT22;10402;49.012;8.370;2023-07-02T10:16:50;22.20;62.00
20487;DHT22;10402;49.012;8.370;2023-07-02T10:19:16;22.30;61.30
20487;DHT22;10402;49.012;8.370;2023-07-02T10:21:42;22.40;61.00
20487;DHT22;10402;49.012;8.370;2023-07-02T10:24:14;22.40;60.70
20487;DHT22;10402;49.012;8.370;2023-07-02T10:26:58;22.50;60.60
20487;DHT22;10402;49.012;8.370;2023-07-02T10:29:25;22.60;59.90
20487;DHT22;10402;49.012;8.370;2023-07-02T10:31:52;22.50;59.60
20487;DHT22;10402;49.012;8.370;2023-07-02T10:34:35;22.50;59.60
20487;DHT22;10402;49.012;8.370;2023-07-02T10:37:01;22.40;60.00
20487;DHT22;10402;49.012;8.370;2023-07-02T10:39:29;22.40;59.10
20487;DHT22;10402;49.012;8.370;2023-07-02T10:42:04;22.30;59.30
20487;DHT22;10402;49.012;8.370;2023-07-02T10:44:30;22.20;59.70
20487;DHT22;10402;49.012;8.370;2023-07-02T10:46:57;22.30;59.90
20487;DHT22;10402;49.012;8.370;2023-07-02T10:49:30;22.40;59.80
20487;DHT22;10402;49.012;8.370;2023-07-02T10:51:57;22.50;59.50
20487;DHT22;10402;49.012;8.370;2023-07-02T10:54:23;22.60;59.40
20487;DHT22;10402;49.012;8.370;2023-07-02T10:56:48;22.70;58.80
20487;DHT22;10402;49.012;8.370;2023-07-02T10:59:24;22.80;58.80
20487;DHT22;10402;49.012;8.370;2023-07-02T11:01:50;22.90;58.50
20487;DHT22;10402;49.012;8.370;2023-07-02T11:04:16;23.00;58.10
20487;DHT22;10402;49.012;8.370;2023-07-02T11:06:42;23.00;58.00
20487;DHT22;10402;49.012;8.370;2023-07-02T11:09:17;23.00;57.60
20487;DHT22;10402;49.012;8.370;2023-07-02T11:11:51;23.10;57.80
20487;DHT22;10402;49.012;8.370;2023-07-02T11:14:26;23.00;57.80
20487;DHT22;10402;49.012;8.370;2023-07-02T11:16:55;23.00;57.80
20487;DHT22;10402;49.012;8.370;2023-07-02T11:19:21;22.90;58.00
20487;DHT22;10402;49.012;8.370;2023-07-02T11:21:55;22.90;58.00
20487;DHT22;10402;49.012;8.370;2023-07-02T11:24:35;23.00;58.10
20487;DHT22;10402;49.012;8.370;2023-07-02T11:27:03;23.00;58.00
20487;DHT22;10402;49.012;8.370;2023-07-02T11:29:31;23.10;58.10
20487;DHT22;10402;49.012;8.370;2023-07-02T11:32:10;23.10;57.70
20487;DHT22;10402;49.012;8.370;2023-07-02T11:34:37;23.10;57.30
20487;DHT22;10402;49.012;8.370;2023-07-02T11:37:03;23.10;57.00
20487;DHT22;10402;49.012;8.370;2023-07-02T11:39:30;23.10;57.00
20487;DHT22;10402;49.012;8.370;2023-07-02T11:41:56;23.10;57.00
20487;DHT22;10402;49.012;8.370;2023-07-02T11:44:21;23.20;56.70
20487;DHT22;10402;49.012;8.370;2023-07-02T11:46:47;23.30;56.30
20487;DHT22;10402;49.012;8.370;2023-07-02T11:49:13;23.30;56.30
20487;DHT22;10402;49.012;8.370;2023-07-02T11:51:40;23.40;56.10
20487;DHT22;10402;49.012;8.370;2023-07-02T11:54:06;23.50;55.90
20487;DHT22;10402;49.012;8.370;2023-07-02T11:56:32;23.50;55.80
20487;DHT22;10402;49.012;8.370;2023-07-02T11:58:58;23.50;55.70
20487;DHT22;10402;49.012;8.370;2023-07-02T12:01:24;23.60;55.60
20487;DHT22;10402;49.012;8.370;2023-07-02T12:03:49;23.60;55.30
20487;DHT22;10402;49.012;8.370;2023-07-02T12:06:15;23.60;55.20
20487;DHT22;10402;49.012;8.370;2023-07-02T12:08:40;23.60;55.20
20487;DHT22;10402;49.012;8.370;2023-07-02T12:11:07;23.60;55.20
20487;DHT22;10402;49.012;8.370;2023-07-02T12:13:33;23.60;54.40
20487;DHT22;10402;49.012;8.370;2023-07-02T12:15:58;23.60;54.20
20487;DHT22;10402;49.012;8.370;2023-07-02T12:18:24;23.60;54.50
20487;DHT22;10402;49.012;8.370;2023-07-02T12:20:49;23.60;54.40
20487;DHT22;10402;49.012;8.370;2023-07-02T12:23:15;23.60;54.00
20487;DHT22;10402;49.012;8.370;2023-07-02T12:25:40;23.60;54.10
20487;DHT22;10402;49.012;8.370;2023-07-02T12:28:06;23.70;53.80
20487;DHT22;10402;49.012;8.370;2023-07-02T12:30:32;23.80;53.40
20487;DHT22;10402;49.012;8.370;2023-07-02T12:32:58;23.90;53.20
20487;DHT22;10402;49.012;8.370;2023-07-02T12:35:23;24.00;52.90
20487;DHT22;10402;49.012;8.370;2023-07-02T12:37:52;24.00;52.50
20487;DHT22;10402;49.012;8.370;2023-07-02T12:40:20;24.00;52.50
20487;DHT22;10402;49.012;8.370;2023-07-02T12:42:47;24.10;52.20
20487;DHT22;10402;49.012;8.370;2023-07-02T12:45:13;24.20;52.20
20487;DHT22;10402;49.012;8.370;2023-07-02T12:47:40;24.30;51.80
20487;DHT22;10402;49.012;8.370;2023-07-02T12:50:07;24.30;51.90
20487;DHT22;10402;49.012;8.370;2023-07-02T12:52:33;24.30;51.90
20487;DHT22;10402;49.012;8.370;2023-07-02T12:54:59;24.30;51.20
20487;DHT22;10402;49.012;8.370;2023-07-02T12:57:24;24.20;51.40
20487;DHT22;10402;49.012;8.370;2023-07-02T12:59:52;24.20;51.60
20487;DHT22;10402;49.012;8.370;2023-07-02T13:02:17;24.20;51.40
20487;DHT22;10402;49.012;8.370;2023-07-02T13:04:43;24.20;51.00
20487;DHT22;10402;49.012;8.370;2023-07-02T13:07:08;24.30;50.80
20487;DHT22;10402;49.012;8.370;2023-07-02T13:09:34;24.30;50.50
20487;DHT22;10402;49.012;8.370;2023-07-02T13:11:59;24.40;50.30
20487;DHT22;10402;49.012;8.370;2023-07-02T13:14:25;24.40;50.00
20487;DHT22;10402;49.012;8.370;2023-07-02T13:16:50;24.40;50.00
20487;DHT22;10402;49.012;8.370;2023-07-02T13:19:16;24.50;49.90
20487;DHT22;10402;49.012;8.370;2023-07-02T13:21:42;24.50;49.40
20487;DHT22;10402;49.012;8.370;2023-07-02T13:24:07;24.50;49.60
20487;DHT22;10402;49.012;8.370;2023-07-02T13:26:33;24.50;49.60
20487;DHT22;10402;49.012;8.370;2023-07-02T13:28:58;24.50;48.60
20487;DHT22;10402;49.012;8.370;2023-07-02T13:31:24;24.50;48.80
20487;DHT22;10402;49.012;8.370;2023-07-02T13:33:50;24.50;48.50
20487;DHT22;10402;49.012;8.370;2023-07-02T13:36:16;24.60;47.90
20487;DHT22;10402;49.012;8.370;2023-07-02T13:38:42;24.60;48.00
20487;DHT22;10402;49.012;8.370;2023-07-02T13:41:08;24.60;47.60
20487;DHT22;10402;49.012;8.370;2023-07-02T13:43:33;24.60;48.00
20487;DHT22;10402;49.012;8.370;2023-07-02T13:45:59;24.70;48.00
20487;DHT22;10402;49.012;8.370;2023-07-02T13:48:25;24.70;48.10
20487;DHT22;10402;49.012;8.370;2023-07-02T13:50:50;24.70;48.10
20487;DHT22;10402;49.012;8.370;2023-07-02T13:53:16;24.80;48.20
20487;DHT22;10402;49.012;8.370;2023-07-02T13:55:41;24.80;48.20
20487;DHT22;10402;49.012;8.370;2023-07-02T13:58:07;24.80;47.30
20487;DHT22;10402;49.012;8.370;2023-07-02T14:00:32;24.80;48.20
20487;DHT22;10402;49.012;8.370;2023-07-02T14:02:58;24.90;47.60
20487;DHT22;10402;49.012;8.370;2023-07-02T14:05:24;24.90;46.90
20487;DHT22;10402;49.012;8.370;2023-07-02T14:07:49;24.90;46.40
20487;DHT22;10402;49.012;8.370;2023-07-02T14:10:15;24.90;46.00
20487;DHT22;10402;49.012;8.370;2023-07-02T14:12:41;24.80;45.90
20487;DHT22;10402;49.012;8.370;2023-07-02T14:15:08;24.80;46.20
20487;DHT22;10402;49.012;8.370;2023-07-02T14:17:34;24.90;46.50
20487;DHT22;10402;49.012;8.370;2023-07-02T14:20:00;24.90;46.20
20487;DHT22;10402;49.012;8.370;2023-07-02T14:22:26;24.90;46.10
20487;DHT22;10402;49.012;8.370;2023-07-02T14:24:51;24.90;46.30
20487;DHT22;10402;49.012;8.370;2023-07-02T14:27:17;24.90;46.80
20487;DHT22;10402;49.012;8.370;2023-07-02T14:29:43;24.90;45.80
20487;DHT22;10402;49.012;8.370;2023-07-02T14:32:08;24.90;46.10
20487;DHT22;10402;49.012;8.370;2023-07-02T14:34:34;25.00;45.90
20487;DHT22;10402;49.012;8.370;2023-07-02T14:37:01;25.00;45.90
20487;DHT22;10402;49.012;8.370;2023-07-02T14:39:27;25.00;45.30
20487;DHT22;10402;49.012;8.370;2023-07-02T14:41:52;25.00;45.00
20487;DHT22;10402;49.012;8.370;2023-07-02T14:44:18;25.10;44.80
20487;DHT22;10402;49.012;8.370;2023-07-02T14:46:43;25.10;45.00
20487;DHT22;10402;49.012;8.370;2023-07-02T14:49:09;25.10;45.00
20487;DHT22;10402;49.012;8.370;2023-07-02T14:51:35;25.20;45.20
20487;DHT22;10402;49.012;8.370;2023-07-02T14:54:01;25.20;45.20
20487;DHT22;10402;49.012;8.370;2023-07-02T14:56:31;25.20;45.00
20487;DHT22;10402;49.012;8.370;2023-07-02T14:58:57;25.20;45.00
20487;DHT22;10402;49.012;8.370;2023-07-02T15:01:22;25.30;45.10
20487;DHT22;10402;49.012;8.370;2023-07-02T15:03:48;25.30;44.50
20487;DHT22;10402;49.012;8.370;2023-07-02T15:06:18;25.30;44.60
20487;DHT22;10402;49.012;8.370;2023-07-02T15:08:44;25.30;44.70
20487;DHT22;10402;49.012;8.370;2023-07-02T15:11:11;25.30;44.30
20487;DHT22;10402;49.012;8.370;2023-07-02T15:13:37;25.20;44.10
20487;DHT22;10402;49.012;8.370;2023-07-02T15:16:04;25.20;43.80
20487;DHT22;10402;49.012;8.370;2023-07-02T15:18:29;25.30;44.30
20487;DHT22;10402;49.012;8.370;2023-07-02T15:20:55;25.30;44.10
20487;DHT22;10402;49.012;8.370;2023-07-02T15:23:24;25.30;43.80
20487;DHT22;10402;49.012;8.370;2023-07-02T15:25:51;25.30;43.90
20487;DHT22;10402;49.012;8.370;2023-07-02T15:28:17;25.30;43.70
20487;DHT22;10402;49.012;8.370;2023-07-02T15:30:43;25.30;43.70